HOURLY OBS INDEX

055

Northwest Slopes - south

GUNNEDAH AIRPORT AWS

Site: 055202
Alt: 262.6m
3km N of GUNNEDAH


  Time     Wind        Temp  DP   Baro     Rain since   Rain past  Vis(m), Cloud(base in m), Weather
  local        km/h                         9am  last   hr   10m    
Wed 16:00  WNW 19/ 30  25.9 -4.6  1009.6    0.0   0.0   0.0   0.0   ----- 
Wed 16:30  WNW 22/ 32  25.4 -7.2  1009.6    0.0   0.0   0.0   0.0   ----- 
Wed 17:00    W 22/ 30  25.0-10.0  1009.8    0.0   0.0   0.0   0.0   ----- 
Wed 17:30  WNW 17/ 24  24.1 -8.2  1010.1    0.0   0.0   0.0   0.0   ----- 
Wed 18:00    W 19/ 26  23.0 -6.9  1010.7    0.0   0.0   0.0   0.0   ----- 
Wed 18:30    W 20/ 30  21.7 -6.0  1011.1    0.0   0.0   0.0   0.0   ----- 
Wed 19:00    W 20/ 26  21.2 -3.3  1011.5    0.0   0.0   0.0   0.0   ----- 
Wed 19:30   SW 17/ 24  19.5 -1.0  1012.1    0.0   0.0   0.0   0.0   ----- 
Wed 20:00  WSW 13/ 17  18.0 -1.8  1012.6    0.0   0.0   0.0   0.0   ----- 
Wed 20:30   SW 15/ 20  17.3 -0.9  1013.0    0.0   0.0   0.0   0.0   ----- 
Wed 21:00  WSW 19/ 24  17.7 -1.0  1013.5    0.0   0.0   0.0   0.0   ----- 

TAMWORTH AIRPORT AWS

Site: 055325
Alt: 394.9m
9km WNW of TAMWORTH


  Time     Wind        Temp  DP   Baro     Rain since   Rain past  Vis(m), Cloud(base in m), Weather
  local        km/h                         9am  last   hr   10m    
Wed 16:00  NNW 37/ 58  23.1  4.6  1010.6    0.0   0.0   0.0   0.0   10000 
Wed 16:30  NNW 24/ 32  23.5  4.5  1010.7    0.0   0.0   0.0   0.0   10000 
Wed 17:00  NNW 17/ 28  23.0  4.5  1011.2    0.0   0.0   0.0   0.0   10000|SC3300 
Wed 17:30  WNW 11/ 20  23.0 -3.3  1011.0    0.0   0.0   0.0   0.0   10000|OC3600 
Wed 18:00   NW  9/ 17  21.4 -0.6  1011.3    0.0   0.0   0.0   0.0   10000|BR3600 
Wed 18:30  WNW 15/ 20  22.0 -5.8  1011.3    0.0   0.0   0.0   0.0   10000|SC3000 
Wed 19:00    W 13/ 15  18.4 -3.1  1011.5    0.0   0.0   0.0   0.0   10000 
Wed 19:30  WSW 20/ 24  19.7  0.2  1012.1    0.0   0.0   0.0   0.0   10000|BR3600 
Wed 20:00  WSW 22/ 30  18.9 -0.5  1012.6    0.0   0.0   0.0   0.0   10000|BR3600 
Wed 20:30  WSW 24/ 30  17.8 -1.4  1013.1    0.0   0.0   0.0   0.0   10000|SC3600 
Wed 21:00  WSW 17/ 19  16.2 -1.4  1013.4    0.0   0.0   0.0   0.0   10000